createdAt,value
2019-05-01T00:01:45.064Z,97.25
2019-05-01T00:04:21.143Z,104.43
2019-05-01T00:06:54.248Z,102.05
2019-05-01T00:09:25.753Z,108.72
2019-05-01T00:11:57.246Z,101.27
2019-05-01T00:14:30.252Z,106.70
2019-05-01T00:17:02.172Z,107.10
2019-05-01T00:19:33.883Z,113.10
2019-05-01T00:22:05.260Z,123.75
2019-05-01T00:24:36.740Z,119.05
2019-05-01T00:27:08.190Z,117.80
2019-05-01T00:29:39.707Z,117.72
2019-05-01T00:32:11.239Z,119.72
2019-05-01T00:34:42.714Z,113.30
2019-05-01T00:37:14.165Z,113.35
2019-05-01T00:39:45.717Z,122.78
2019-05-01T00:42:17.136Z,109.50
2019-05-01T00:44:48.640Z,103.50
2019-05-01T00:47:20.087Z,106.15
2019-05-01T00:49:51.639Z,105.55
2019-05-01T00:52:23.044Z,107.35
2019-05-01T00:55:12.638Z,104.43
2019-05-01T00:57:45.649Z,110.35
2019-05-01T01:00:24.768Z,104.78
2019-05-01T01:02:56.278Z,108.22
2019-05-01T01:05:27.788Z,107.80
2019-05-01T01:07:59.324Z,104.05
2019-05-01T01:10:30.834Z,105.05
2019-05-01T01:13:03.287Z,109.92
2019-05-01T01:15:34.731Z,106.70
2019-05-01T01:18:06.254Z,113.92
2019-05-01T01:20:37.666Z,114.52
2019-05-01T01:23:09.054Z,104.23
2019-05-01T01:25:40.550Z,117.72
2019-05-01T01:28:12.049Z,105.58
2019-05-01T01:30:55.676Z,110.78
2019-05-01T01:33:17.131Z,107.70
2019-05-01T01:35:48.552Z,105.12
2019-05-01T01:38:19.980Z,107.35
2019-05-01T01:40:51.743Z,103.00
2019-05-01T01:43:40.014Z,106.22
2019-05-01T01:46:28.298Z,107.45
2019-05-01T01:48:59.904Z,110.35
2019-05-01T01:51:31.496Z,102.07
2019-05-01T01:54:03.233Z,96.35
2019-05-01T01:56:34.879Z,93.55
2019-05-01T01:59:06.465Z,102.07
2019-05-01T02:01:49.333Z,97.30
2019-05-01T02:04:40.007Z,93.87
2019-05-01T02:07:11.511Z,95.10
2019-05-01T02:09:42.917Z,88.30
2019-05-01T02:12:15.098Z,95.28
2019-05-01T02:14:46.492Z,90.62
2019-05-01T02:17:18.013Z,93.65
2019-05-01T02:19:49.585Z,89.67
2019-05-01T02:22:21.001Z,97.72
2019-05-01T02:24:52.382Z,95.55
2019-05-01T02:27:28.483Z,94.77
2019-05-01T02:30:02.466Z,96.50
2019-05-01T02:32:35.311Z,91.10
2019-05-01T02:35:07.778Z,90.65
2019-05-01T02:37:39.882Z,93.25
2019-05-01T02:40:43.018Z,89.58
2019-05-01T02:46:03.254Z,92.62
2019-05-01T02:48:37.851Z,89.72
2019-05-01T02:51:10.513Z,93.07
2019-05-01T02:53:44.958Z,95.57
2019-05-01T02:56:19.462Z,94.05
2019-05-01T02:58:53.882Z,94.87
2019-05-01T03:01:25.992Z,99.20
2019-05-01T03:03:58.273Z,100.30
2019-05-01T03:06:32.350Z,94.90
2019-05-01T03:09:07.444Z,96.47
2019-05-01T03:14:19.752Z,96.35
2019-05-01T03:16:54.358Z,93.30
2019-05-01T03:19:31.694Z,104.90
2019-05-01T03:22:20.490Z,96.42
2019-05-01T03:24:52.536Z,98.03
2019-05-01T03:27:23.970Z,97.67
2019-05-01T03:29:55.831Z,99.00
2019-05-01T03:32:27.324Z,99.22
2019-05-01T03:34:58.727Z,103.50
2019-05-01T03:37:30.600Z,99.03
2019-05-01T03:40:02.078Z,94.13
2019-05-01T03:42:34.835Z,97.27
2019-05-01T03:45:07.306Z,95.30
2019-05-01T03:47:38.836Z,89.60
2019-05-01T03:50:10.412Z,96.30
2019-05-01T03:52:42.364Z,99.35
2019-05-01T03:55:14.314Z,94.80
2019-05-01T03:57:45.893Z,113.83
2019-05-01T04:00:22.174Z,100.53
2019-05-01T04:03:11.929Z,107.45
2019-05-01T04:05:44.209Z,110.03
2019-05-01T04:08:16.642Z,110.20
2019-05-01T04:10:48.920Z,109.52
2019-05-01T04:13:20.411Z,116.17
2019-05-01T04:15:53.581Z,96.70
2019-05-01T04:18:26.838Z,92.65
2019-05-01T04:20:59.197Z,102.62
2019-05-01T04:23:31.090Z,93.42
2019-05-01T04:26:02.959Z,86.72
2019-05-01T04:28:40.244Z,94.52
2019-05-01T04:31:13.417Z,85.97
2019-05-01T04:33:46.926Z,104.45
2019-05-01T04:36:38.509Z,98.07
2019-05-01T04:39:09.908Z,108.83
2019-05-01T04:41:41.480Z,118.17
2019-05-01T04:44:12.866Z,115.08
2019-05-01T04:46:44.248Z,114.82
2019-05-01T04:49:18.074Z,119.57
2019-05-01T04:51:49.302Z,109.67
2019-05-01T04:54:21.370Z,102.67
2019-05-01T04:56:53.142Z,96.15
2019-05-01T04:59:24.630Z,92.15
2019-05-01T05:01:58.433Z,89.13
2019-05-01T05:04:30.717Z,100.35
2019-05-01T05:07:02.192Z,96.70
2019-05-01T05:09:39.157Z,97.25
2019-05-01T05:12:12.662Z,86.22
2019-05-01T05:14:48.576Z,79.92
2019-05-01T05:17:21.661Z,82.47
2019-05-01T05:19:53.395Z,80.53
2019-05-01T05:22:25.917Z,85.47
2019-05-01T05:24:57.674Z,83.07
2019-05-01T05:27:30.285Z,76.90
2019-05-01T05:30:02.628Z,79.53
2019-05-01T05:32:35.966Z,72.40
2019-05-01T05:35:08.951Z,69.32
2019-05-01T05:37:58.312Z,72.90
2019-05-01T05:40:32.767Z,73.52
2019-05-01T05:43:05.696Z,72.80
2019-05-01T05:45:37.457Z,69.05
2019-05-01T05:48:09.343Z,62.98
2019-05-01T05:51:02.740Z,69.37
2019-05-01T05:53:37.706Z,62.53
2019-05-01T05:58:46.166Z,65.70
2019-05-01T06:04:20.931Z,64.87
2019-05-01T06:07:00.997Z,58.15
2019-05-01T06:09:37.155Z,58.02
2019-05-01T06:12:16.101Z,59.75
2019-05-01T06:14:51.400Z,61.20
2019-05-01T06:17:36.655Z,59.95
2019-05-01T06:23:07.413Z,56.28
2019-05-01T06:25:42.986Z,51.55
2019-05-01T06:28:15.430Z,57.50
2019-05-01T06:30:48.793Z,75.32
2019-05-01T06:33:19.943Z,58.83
2019-05-01T06:35:51.447Z,55.65
2019-05-01T06:38:45.369Z,53.42
2019-05-01T06:41:07.635Z,56.70
2019-05-01T06:43:44.180Z,50.50
2019-05-01T06:46:22.192Z,54.70
2019-05-01T06:48:55.794Z,55.83
2019-05-01T06:51:35.500Z,56.85
2019-05-01T06:54:11.366Z,55.35
2019-05-01T06:56:43.198Z,50.45
2019-05-01T06:59:16.774Z,53.98
2019-05-01T07:01:53.263Z,55.48
2019-05-01T07:04:24.680Z,50.90
2019-05-01T07:06:56.168Z,50.15
2019-05-01T07:09:28.450Z,51.45
2019-05-01T07:12:02.802Z,50.12
2019-05-01T07:14:34.965Z,55.23
2019-05-01T07:17:09.005Z,55.23
2019-05-01T07:19:54.349Z,50.03
2019-05-01T07:22:28.139Z,53.17
2019-05-01T07:25:07.044Z,46.37
2019-05-01T07:27:49.198Z,47.62
2019-05-01T07:30:41.361Z,50.20
2019-05-01T07:33:16.700Z,41.77
2019-05-01T07:35:53.824Z,46.70
2019-05-01T07:38:27.507Z,47.78
2019-05-01T07:41:03.493Z,42.83
2019-05-01T07:46:13.777Z,47.78
2019-05-01T07:48:56.388Z,45.25
2019-05-01T07:51:37.791Z,47.20
2019-05-01T07:54:11.480Z,46.00
2019-05-01T07:56:44.972Z,48.78
2019-05-01T07:59:22.743Z,49.00
2019-05-01T08:01:59.068Z,47.05
2019-05-01T08:04:36.313Z,45.67
2019-05-01T08:07:14.726Z,41.83
2019-05-01T08:09:50.249Z,43.48
2019-05-01T08:12:23.895Z,46.45
2019-05-01T08:14:55.850Z,48.30
2019-05-01T08:17:29.146Z,45.45
2019-05-01T08:20:05.058Z,51.08
2019-05-01T08:22:39.416Z,41.68
2019-05-01T08:25:15.240Z,43.58
2019-05-01T08:27:56.208Z,41.40
2019-05-01T08:30:35.621Z,47.23
2019-05-01T08:33:09.767Z,45.10
2019-05-01T08:35:41.775Z,42.90
2019-05-01T08:38:13.287Z,50.43
2019-05-01T08:40:44.734Z,45.08
2019-05-01T08:43:18.121Z,39.20
2019-05-01T08:45:51.834Z,42.30
2019-05-01T08:48:35.755Z,45.85
2019-05-01T08:51:04.460Z,38.15
2019-05-01T08:53:35.908Z,44.20
2019-05-01T08:56:09.720Z,40.55
2019-05-01T08:58:40.616Z,37.20
2019-05-01T09:01:14.970Z,38.33
2019-05-01T09:03:45.390Z,36.55
2019-05-01T09:06:16.783Z,32.98
2019-05-01T09:08:48.302Z,38.60
2019-05-01T09:11:19.716Z,30.00
2019-05-01T09:13:54.710Z,34.60
2019-05-01T09:16:28.323Z,34.88
2019-05-01T09:18:57.444Z,27.42
2019-05-01T09:21:28.851Z,35.98
2019-05-01T09:24:00.306Z,32.80
2019-05-01T09:26:36.165Z,35.10
2019-05-01T09:29:16.124Z,30.48
2019-05-01T09:31:45.144Z,35.48
2019-05-01T09:34:19.135Z,38.38
2019-05-01T09:36:49.768Z,43.92
2019-05-01T09:39:22.882Z,38.30
2019-05-01T09:41:54.306Z,37.75
2019-05-01T09:44:25.732Z,37.80
2019-05-01T09:46:57.094Z,34.83
2019-05-01T09:49:28.569Z,35.48
2019-05-01T09:52:18.919Z,41.60
2019-05-01T09:54:54.387Z,39.90
2019-05-01T09:57:25.873Z,41.58
2019-05-01T09:59:57.336Z,35.88
2019-05-01T10:02:28.787Z,32.05
2019-05-01T10:05:02.115Z,25.97
2019-05-01T10:07:33.327Z,25.10
2019-05-01T10:10:06.979Z,25.70
2019-05-01T10:12:41.912Z,24.32
2019-05-01T10:15:11.505Z,27.70
2019-05-01T10:17:43.021Z,25.62
2019-05-01T10:20:14.453Z,19.35
2019-05-01T10:22:45.812Z,18.87
2019-05-01T10:25:17.200Z,19.07
2019-05-01T10:27:52.875Z,19.00
2019-05-01T10:30:31.701Z,21.42
2019-05-01T10:33:17.812Z,18.90
2019-05-01T10:36:07.080Z,21.95
2019-05-01T10:38:39.943Z,23.22
2019-05-01T10:41:11.635Z,26.12
2019-05-01T10:43:43.114Z,24.35
2019-05-01T10:46:14.652Z,20.57
2019-05-01T10:48:46.063Z,20.23
2019-05-01T10:51:17.408Z,19.23
2019-05-01T10:53:48.826Z,18.67
2019-05-01T10:56:20.175Z,18.02
2019-05-01T10:58:51.637Z,20.20
2019-05-01T11:01:41.108Z,28.85
2019-05-01T11:04:12.629Z,19.25
2019-05-01T11:06:44.044Z,20.15
2019-05-01T11:09:15.382Z,20.43
2019-05-01T11:11:46.834Z,17.55
2019-05-01T11:14:18.441Z,20.40
2019-05-01T11:16:49.951Z,21.10
2019-05-01T11:19:21.513Z,14.63
2019-05-01T11:21:53.038Z,17.98
2019-05-01T11:24:24.823Z,16.35
2019-05-01T11:26:56.514Z,24.07
2019-05-01T11:29:28.332Z,17.67
2019-05-01T11:32:13.743Z,20.25
2019-05-01T11:34:46.815Z,16.87
2019-05-01T11:37:25.897Z,37.85
2019-05-01T11:39:58.978Z,16.70
2019-05-01T11:42:30.593Z,18.80
2019-05-01T11:45:02.153Z,12.20
2019-05-01T11:47:33.677Z,24.63
2019-05-01T11:50:06.311Z,16.73
2019-05-01T11:52:37.817Z,15.25
2019-05-01T11:55:09.363Z,19.35
2019-05-01T11:57:40.874Z,14.68
2019-05-01T12:00:15.552Z,14.80
2019-05-01T12:02:47.107Z,15.05
2019-05-01T12:05:18.621Z,10.70
2019-05-01T12:07:50.206Z,21.20
2019-05-01T12:10:21.735Z,13.08
2019-05-01T12:12:53.278Z,21.02
2019-05-01T12:15:24.954Z,16.50
2019-05-01T12:17:56.475Z,14.55
2019-05-01T12:20:27.979Z,16.27
2019-05-01T12:22:59.499Z,13.78
2019-05-01T12:25:31.077Z,10.78
2019-05-01T12:28:02.623Z,13.50
2019-05-01T12:30:34.140Z,13.55
2019-05-01T12:33:05.648Z,13.30
2019-05-01T12:35:37.244Z,15.55
2019-05-01T12:38:08.830Z,14.03
2019-05-01T12:40:40.369Z,11.43
2019-05-01T12:43:12.391Z,15.05
2019-05-01T12:45:45.716Z,18.98
2019-05-01T12:48:17.249Z,9.78
2019-05-01T12:50:50.348Z,9.68
2019-05-01T12:53:23.495Z,9.85
2019-05-01T12:56:06.752Z,10.00
2019-05-01T12:58:38.261Z,13.43
2019-05-01T13:01:09.785Z,11.33
2019-05-01T13:03:41.318Z,10.45
2019-05-01T13:06:14.514Z,9.30
2019-05-01T13:08:46.185Z,38.17
2019-05-01T13:11:17.698Z,10.00
2019-05-01T13:13:49.280Z,13.55
2019-05-01T13:16:20.825Z,15.35
2019-05-01T13:18:52.368Z,9.43
2019-05-01T13:21:23.933Z,13.05
2019-05-01T13:23:55.486Z,9.10
2019-05-01T13:26:28.624Z,10.48
2019-05-01T13:29:17.257Z,12.90
2019-05-01T13:31:56.226Z,12.88
2019-05-01T13:34:27.816Z,7.42
2019-05-01T13:37:03.043Z,15.43
2019-05-01T13:39:32.689Z,35.55
2019-05-01T13:42:05.104Z,27.40
2019-05-01T13:44:36.702Z,10.32
2019-05-01T13:47:08.353Z,14.43
2019-05-01T13:49:39.914Z,30.05
2019-05-01T13:52:11.456Z,19.32
2019-05-01T13:54:43.009Z,15.78
2019-05-01T13:57:14.612Z,17.73
2019-05-01T13:59:46.215Z,12.43
2019-05-01T14:02:17.779Z,23.65
2019-05-01T14:04:49.395Z,28.47
2019-05-01T14:07:21.126Z,27.98
2019-05-01T14:09:52.653Z,14.23
2019-05-01T14:12:24.341Z,44.23
2019-05-01T14:14:55.940Z,14.50
2019-05-01T14:17:27.541Z,20.68
2019-05-01T14:20:06.520Z,27.02
2019-05-01T14:22:54.637Z,13.95
2019-05-01T14:25:26.226Z,17.52
2019-05-01T14:27:57.917Z,9.20
2019-05-01T14:30:29.457Z,13.53
2019-05-01T14:33:00.975Z,15.60
2019-05-01T14:35:32.514Z,9.40
2019-05-01T14:38:04.027Z,9.23
2019-05-01T14:40:37.444Z,10.78
2019-05-01T14:43:09.022Z,13.83
2019-05-01T14:45:40.655Z,9.20
2019-05-01T14:48:12.617Z,9.73
2019-05-01T14:50:44.173Z,16.05
2019-05-01T14:53:15.656Z,17.77
2019-05-01T14:55:47.189Z,9.38
2019-05-01T14:58:18.754Z,6.25
2019-05-01T15:00:50.406Z,7.78
2019-05-01T15:03:21.956Z,8.43
2019-05-01T15:05:53.507Z,8.25
2019-05-01T15:08:25.051Z,12.03
2019-05-01T15:10:58.145Z,8.60
2019-05-01T15:13:35.413Z,9.90
2019-05-01T15:16:16.491Z,10.68
2019-05-01T15:19:02.749Z,8.73
2019-05-01T15:21:35.429Z,12.60
2019-05-01T15:24:07.162Z,16.00
2019-05-01T15:26:38.711Z,9.00
2019-05-01T15:29:10.299Z,9.78
2019-05-01T15:31:41.942Z,10.32
2019-05-01T15:34:13.441Z,8.15
2019-05-01T15:36:45.009Z,8.40
2019-05-01T15:39:22.077Z,10.55
2019-05-01T15:42:10.398Z,8.75
2019-05-01T15:44:43.540Z,8.48
2019-05-01T15:47:15.073Z,16.05
2019-05-01T15:49:46.609Z,8.10
2019-05-01T15:52:18.135Z,14.80
2019-05-01T15:54:49.625Z,9.35
2019-05-01T15:57:24.162Z,25.30
2019-05-01T15:59:55.688Z,11.68
2019-05-01T16:02:27.215Z,15.45
2019-05-01T16:04:58.775Z,11.43
2019-05-01T16:07:35.109Z,11.03
2019-05-01T16:10:12.651Z,12.23
2019-05-01T16:12:52.657Z,11.85
2019-05-01T16:15:29.264Z,14.83
2019-05-01T16:18:02.313Z,9.88
2019-05-01T16:20:34.069Z,12.05
2019-05-01T16:23:05.623Z,9.78
2019-05-01T16:25:37.269Z,8.08
2019-05-01T16:28:08.894Z,10.60
2019-05-01T16:30:40.424Z,9.05
2019-05-01T16:33:11.957Z,6.45
2019-05-01T16:35:43.605Z,8.85
2019-05-01T16:38:23.126Z,8.13
2019-05-01T16:41:04.068Z,7.42
2019-05-01T16:43:37.006Z,7.30
2019-05-01T16:46:08.518Z,8.40
2019-05-01T16:48:41.582Z,5.45
2019-05-01T16:51:16.087Z,11.43
2019-05-01T16:56:44.406Z,7.75
2019-05-01T16:59:18.817Z,11.12
2019-05-01T17:01:55.085Z,8.95
2019-05-01T17:04:44.715Z,12.13
2019-05-01T17:07:17.951Z,8.00
2019-05-01T17:10:04.365Z,5.87
2019-05-01T17:12:49.517Z,8.00
2019-05-01T17:15:28.310Z,10.38
2019-05-01T17:18:01.358Z,5.72
2019-05-01T17:20:34.051Z,11.03
2019-05-01T17:23:05.823Z,8.68
2019-05-01T17:25:39.072Z,8.20
2019-05-01T17:28:10.577Z,7.03
2019-05-01T17:30:44.708Z,5.00
2019-05-01T17:35:49.654Z,7.90
2019-05-01T17:38:21.217Z,10.43
2019-05-01T17:40:53.587Z,9.78
2019-05-01T17:43:26.404Z,10.23
2019-05-01T17:45:59.446Z,8.95
2019-05-01T17:48:33.614Z,8.23
2019-05-01T17:51:04.299Z,13.08
2019-05-01T17:53:35.948Z,13.58
2019-05-01T17:56:10.205Z,7.53
2019-05-01T17:58:40.449Z,8.33
2019-05-01T18:01:33.221Z,6.72
2019-05-01T18:04:07.453Z,6.05
2019-05-01T18:06:42.031Z,9.48
2019-05-01T18:09:16.307Z,9.38
2019-05-01T18:11:52.402Z,9.35
2019-05-01T18:14:20.693Z,8.20
2019-05-01T18:16:52.057Z,9.80
2019-05-01T18:19:26.327Z,11.28
2019-05-01T18:22:05.300Z,3.90
2019-05-01T18:24:53.886Z,8.15
2019-05-01T18:27:43.881Z,6.70
2019-05-01T18:30:20.585Z,9.48
2019-05-01T18:35:23.433Z,7.75
2019-05-01T18:37:59.279Z,5.83
2019-05-01T18:40:50.346Z,4.65
2019-05-01T18:43:26.929Z,48.85
2019-05-01T18:45:57.956Z,7.97
2019-05-01T18:48:29.270Z,5.75
2019-05-01T18:51:03.633Z,6.37
2019-05-01T18:53:35.062Z,8.30
2019-05-01T18:56:07.035Z,6.17
2019-05-01T18:58:38.581Z,4.80
2019-05-01T19:01:31.060Z,9.60
2019-05-01T19:04:04.751Z,7.35
2019-05-01T19:06:41.309Z,5.17
2019-05-01T19:09:29.722Z,4.33
2019-05-01T19:11:54.458Z,3.75
2019-05-01T19:14:28.688Z,5.28
2019-05-01T19:17:00.287Z,7.92
2019-05-01T19:19:31.565Z,6.67
2019-05-01T19:22:02.977Z,3.92
2019-05-01T19:24:38.191Z,5.00
2019-05-01T19:27:08.086Z,3.42
2019-05-01T19:29:40.622Z,3.95
2019-05-01T19:32:14.996Z,6.53
2019-05-01T19:34:47.339Z,6.53
2019-05-01T19:37:22.000Z,4.53
2019-05-01T19:39:54.970Z,5.83
2019-05-01T19:42:26.450Z,10.32
2019-05-01T19:44:59.167Z,17.95
2019-05-01T19:47:31.002Z,3.98
2019-05-01T19:50:07.573Z,3.75
2019-05-01T19:52:37.795Z,8.35
2019-05-01T19:55:12.347Z,7.90
2019-05-01T19:57:43.665Z,5.08
2019-05-01T20:00:17.721Z,4.55
2019-05-01T20:02:49.128Z,6.58
2019-05-01T20:05:21.952Z,8.98
2019-05-01T20:07:56.140Z,9.40
2019-05-01T20:10:29.273Z,13.08
2019-05-01T20:13:00.620Z,5.37
2019-05-01T20:15:32.429Z,8.73
2019-05-01T20:18:03.699Z,9.25
2019-05-01T20:20:34.959Z,32.60
2019-05-01T20:23:06.485Z,8.15
2019-05-01T20:25:37.715Z,10.25
2019-05-01T20:28:08.983Z,10.50
2019-05-01T20:30:40.321Z,9.40
2019-05-01T20:33:11.568Z,12.45
2019-05-01T20:35:42.793Z,5.47
2019-05-01T20:38:14.116Z,7.97
2019-05-01T20:40:45.450Z,8.08
2019-05-01T20:43:17.755Z,6.90
2019-05-01T20:45:51.136Z,8.60
2019-05-01T20:48:23.757Z,7.97
2019-05-01T20:50:55.280Z,8.10
2019-05-01T20:53:26.598Z,13.00
2019-05-01T20:55:59.494Z,9.18
2019-05-01T20:58:30.887Z,6.70
2019-05-01T21:01:03.188Z,6.58
2019-05-01T21:03:36.391Z,6.90
2019-05-01T21:06:28.103Z,4.40
2019-05-01T21:09:13.716Z,5.42
2019-05-01T21:12:05.066Z,7.35
2019-05-01T21:14:30.755Z,4.25
2019-05-01T21:17:02.022Z,5.90
2019-05-01T21:19:35.305Z,6.40
2019-05-01T21:22:06.378Z,6.85
2019-05-01T21:24:37.688Z,5.87
2019-05-01T21:27:08.931Z,4.40
2019-05-01T21:29:44.529Z,3.08
2019-05-01T21:32:18.227Z,3.65
2019-05-01T21:34:50.434Z,5.10
2019-05-01T21:37:23.370Z,4.78
2019-05-01T21:39:54.766Z,4.70
2019-05-01T21:42:26.039Z,3.67
2019-05-01T21:44:57.356Z,2.60
2019-05-01T21:47:28.605Z,6.22
2019-05-01T21:49:59.958Z,4.03
2019-05-01T21:52:32.936Z,10.90
2019-05-01T21:55:05.561Z,2.85
2019-05-01T21:57:40.120Z,4.50
2019-05-01T22:00:10.397Z,6.92
2019-05-01T22:02:46.387Z,5.37
2019-05-01T22:05:16.239Z,3.98
2019-05-01T22:07:47.520Z,4.22
2019-05-01T22:10:21.522Z,5.40
2019-05-01T22:12:52.023Z,2.85
2019-05-01T22:15:27.616Z,4.75
2019-05-01T22:18:00.628Z,4.72
2019-05-01T22:20:50.074Z,5.58
2019-05-01T22:23:23.236Z,6.42
2019-05-01T22:26:00.371Z,5.33
2019-05-01T22:28:36.494Z,2.80
2019-05-01T22:31:25.580Z,18.92
2019-05-01T22:33:58.626Z,8.38
2019-05-01T22:36:31.037Z,5.22
2019-05-01T22:39:05.995Z,4.55
2019-05-01T22:41:39.319Z,5.20
2019-05-01T22:44:12.852Z,4.05
2019-05-01T22:46:43.789Z,3.30
2019-05-01T22:49:16.133Z,6.10
2019-05-01T22:51:47.553Z,4.45
2019-05-01T22:54:18.894Z,6.33
2019-05-01T22:56:50.266Z,4.47
2019-05-01T22:59:21.533Z,5.10
2019-05-01T23:01:54.420Z,4.25
2019-05-01T23:04:26.131Z,3.72
2019-05-01T23:06:57.482Z,4.65
2019-05-01T23:09:30.374Z,7.50
2019-05-01T23:12:01.772Z,4.95
2019-05-01T23:14:33.140Z,5.37
2019-05-01T23:17:06.210Z,5.17
2019-05-01T23:19:37.540Z,8.18
2019-05-01T23:22:08.772Z,6.30
2019-05-01T23:24:40.028Z,4.65
2019-05-01T23:27:11.350Z,7.17
2019-05-01T23:29:42.726Z,4.90
2019-05-01T23:32:14.035Z,5.40
2019-05-01T23:34:45.330Z,5.58
2019-05-01T23:37:16.740Z,5.95
2019-05-01T23:39:47.975Z,6.60
2019-05-01T23:42:19.226Z,5.65
2019-05-01T23:44:50.488Z,8.35
2019-05-01T23:47:21.894Z,7.35
2019-05-01T23:49:53.856Z,9.65
2019-05-01T23:52:26.307Z,4.12
2019-05-01T23:54:57.615Z,6.37
2019-05-01T23:57:28.926Z,4.75
